Time;durP1;ratioP1;P1;durP2;ratioP2;P2;SDS_P1;SDS_P2;PMS_P1;PMS_P2;Temp;Humidity;BMP_temperature;BMP_pressure;BME280_temperature;BME280_humidity;BME280_pressure;Samples;Min_cycle;Max_cycle;Signal;HPM_P1;HPM_P2
2023/08/22 00:01:23;;;;;;;0.00;0.00;;;;;;;19.31;100.00;102076.88;5072394;28;20548;-45
2023/08/22 00:03:49;;;;;;;0.00;0.00;;;;;;;19.33;100.00;102074.78;5089198;28;20028;-46
2023/08/22 00:06:14;;;;;;;0.00;0.00;;;;;;;19.30;100.00;102067.03;5077124;28;20056;-46
2023/08/22 00:08:40;;;;;;;0.00;0.00;;;;;;;19.28;100.00;102063.66;5075274;28;20036;-46
2023/08/22 00:11:05;;;;;;;0.00;0.00;;;;;;;19.26;100.00;102063.00;5072815;28;20520;-44
2023/08/22 00:13:31;;;;;;;0.00;0.00;;;;;;;19.20;100.00;102059.25;5082501;28;20028;-46
2023/08/22 00:16:00;;;;;;;0.00;0.00;;;;;;;19.18;100.00;102065.97;5076105;28;20070;-43
2023/08/22 00:18:26;;;;;;;0.00;0.00;;;;;;;19.16;100.00;102057.97;5060443;28;20035;-44
2023/08/22 00:20:51;;;;;;;0.10;0.00;;;;;;;19.17;100.00;102065.13;5077613;28;20029;-46
2023/08/22 00:23:17;;;;;;;0.00;0.00;;;;;;;19.16;100.00;102063.44;5077727;28;20462;-46
2023/08/22 00:25:42;;;;;;;0.00;0.00;;;;;;;19.17;100.00;102061.53;5062804;28;20067;-44
2023/08/22 00:28:07;;;;;;;0.00;0.00;;;;;;;19.14;100.00;102048.31;5074911;28;20032;-46
2023/08/22 00:30:33;;;;;;;0.00;0.00;;;;;;;19.05;100.00;102043.06;5093554;28;20494;-44
2023/08/22 00:32:58;;;;;;;0.00;0.00;;;;;;;18.99;100.00;102041.19;5079269;28;20033;-44
2023/08/22 00:35:25;;;;;;;0.00;0.00;;;;;;;18.92;100.00;102048.50;5072899;28;20024;-45
2023/08/22 00:37:51;;;;;;;0.00;0.00;;;;;;;18.87;100.00;102045.56;5074232;28;20077;-46
2023/08/22 00:40:16;;;;;;;0.00;0.00;;;;;;;18.86;100.00;102043.88;5074201;28;20028;-47
2023/08/22 00:42:42;;;;;;;0.00;0.00;;;;;;;18.86;100.00;102046.63;5073936;28;20601;-45
2023/08/22 00:45:08;;;;;;;0.00;0.00;;;;;;;18.85;100.00;102039.47;5073792;28;20020;-44
2023/08/22 00:47:33;;;;;;;0.00;0.00;;;;;;;18.77;100.00;102037.81;5073722;28;20425;-46
2023/08/22 00:49:59;;;;;;;0.00;0.00;;;;;;;18.72;100.00;102040.28;5073193;28;20024;-44
2023/08/22 00:52:24;;;;;;;0.10;0.00;;;;;;;18.68;100.00;102030.81;5073957;28;20048;-44
2023/08/22 00:54:49;;;;;;;0.00;0.00;;;;;;;18.62;100.00;102024.31;5073873;28;20144;-48
2023/08/22 00:57:15;;;;;;;0.00;0.00;;;;;;;18.60;100.00;102022.84;5054018;28;20428;-44
2023/08/22 00:59:41;;;;;;;0.00;0.00;;;;;;;18.60;100.00;102031.00;5072402;28;20044;-44
2023/08/22 01:02:09;;;;;;;0.00;0.00;;;;;;;18.57;100.00;102037.72;5072533;28;20475;-46
2023/08/22 01:04:35;;;;;;;0.00;0.00;;;;;;;18.59;100.00;102038.34;5086399;28;20540;-47
2023/08/22 01:07:09;;;;;;;0.00;0.00;;;;;;;18.60;100.00;102026.41;5077213;28;20063;-44
2023/08/22 01:09:58;;;;;;;0.00;0.00;;;;;;;18.64;100.00;102032.25;5064137;28;20040;-46
2023/08/22 01:12:47;;;;;;;0.00;0.00;;;;;;;18.65;100.00;102029.34;5075054;28;20111;-45
2023/08/22 01:15:26;;;;;;;0.00;0.00;;;;;;;18.69;100.00;102037.09;5088853;28;20020;-45
2023/08/22 01:17:53;;;;;;;0.00;0.00;;;;;;;18.69;100.00;102034.38;5073056;28;20565;-45
2023/08/22 01:20:19;;;;;;;0.00;0.00;;;;;;;18.70;100.00;102036.06;5071659;28;20056;-45
2023/08/22 01:22:44;;;;;;;0.00;0.00;;;;;;;18.71;100.00;102032.28;5075790;28;20491;-46
2023/08/22 01:25:10;;;;;;;0.00;0.00;;;;;;;18.68;100.00;102032.72;5072808;28;20032;-44
2023/08/22 01:27:42;;;;;;;0.00;0.00;;;;;;;18.68;100.00;102038.16;5075130;28;20341;-44
2023/08/22 01:30:14;;;;;;;0.00;0.00;;;;;;;18.69;100.00;102031.66;5059724;28;20095;-46
2023/08/22 01:32:44;;;;;;;0.00;0.00;;;;;;;18.69;100.00;102034.38;5083026;28;20028;-45
2023/08/22 01:35:11;;;;;;;0.00;0.00;;;;;;;18.72;100.00;102033.97;5054307;28;20044;-43
2023/08/22 01:37:37;;;;;;;0.00;0.00;;;;;;;18.71;100.00;102018.66;5069613;28;20029;-44
2023/08/22 01:40:05;;;;;;;0.00;0.00;;;;;;;18.72;100.00;102028.50;5060081;28;20105;-45
2023/08/22 01:42:30;;;;;;;;;;;;;;;18.68;100.00;102021.81;5066238;28;20040;-45
2023/08/22 01:44:56;;;;;;;0.00;0.00;;;;;;;18.67;100.00;102020.09;5072937;28;19912;-43
2023/08/22 01:47:21;;;;;;;0.00;0.00;;;;;;;18.64;100.00;102027.66;5087404;28;20081;-44
2023/08/22 01:49:46;;;;;;;0.00;0.00;;;;;;;18.62;100.00;102018.84;5039799;28;20394;-45
2023/08/22 01:52:12;;;;;;;0.00;0.00;;;;;;;18.59;100.00;102016.53;5074527;28;20434;-44
2023/08/22 01:54:38;;;;;;;0.00;0.00;;;;;;;18.56;100.00;102014.25;5075831;28;20026;-44
2023/08/22 01:57:03;;;;;;;0.00;0.00;;;;;;;18.55;100.00;102012.53;5080543;28;20058;-44
2023/08/22 01:59:29;;;;;;;0.00;0.00;;;;;;;18.50;100.00;102008.75;5071320;28;20068;-43
2023/08/22 02:01:54;;;;;;;0.00;0.00;;;;;;;18.43;100.00;102006.88;5071748;28;20115;-45
2023/08/22 02:04:20;;;;;;;0.00;0.00;;;;;;;18.37;100.00;102007.66;5084944;28;20286;-43
2023/08/22 02:06:46;;;;;;;0.00;0.00;;;;;;;18.30;100.00;102008.69;5073666;28;20032;-45
2023/08/22 02:09:14;;;;;;;0.00;0.00;;;;;;;18.25;100.00;102000.31;5051535;28;20078;-44
2023/08/22 02:11:40;;;;;;;0.00;0.00;;;;;;;18.18;100.00;102003.00;5075828;28;20024;-46
2023/08/22 02:14:05;;;;;;;0.00;0.00;;;;;;;18.13;100.00;102000.88;5071918;28;20024;-46
2023/08/22 02:16:32;;;;;;;0.00;0.00;;;;;;;18.09;100.00;101996.03;5037248;28;20048;-45
2023/08/22 02:18:58;;;;;;;0.00;0.00;;;;;;;18.06;100.00;101991.88;5072301;28;20067;-44
2023/08/22 02:21:23;;;;;;;0.00;0.00;;;;;;;18.01;100.00;101999.81;5075751;28;20027;-43
2023/08/22 02:23:48;;;;;;;0.00;0.00;;;;;;;17.95;100.00;102000.59;5077122;28;20125;-44
2023/08/22 02:26:14;;;;;;;0.00;0.00;;;;;;;17.92;100.00;101992.84;5074004;28;20382;-45
2023/08/22 02:28:39;;;;;;;0.00;0.00;;;;;;;17.87;100.00;101998.03;5077812;28;20119;-46
2023/08/22 02:31:04;;;;;;;0.00;0.00;;;;;;;17.80;100.00;101991.72;5073180;28;20393;-46
2023/08/22 02:33:30;;;;;;;0.00;0.00;;;;;;;17.67;100.00;101984.31;5070786;28;20036;-45
2023/08/22 02:35:55;;;;;;;0.00;0.00;;;;;;;17.63;100.00;102000.19;5071250;28;20050;-44
2023/08/22 02:38:21;;;;;;;0.00;0.00;;;;;;;17.60;100.00;101997.88;5069923;28;20467;-46
2023/08/22 02:40:47;;;;;;;0.00;0.00;;;;;;;17.60;100.00;101997.03;5069702;28;20486;-46
2023/08/22 02:43:12;;;;;;;0.00;0.00;;;;;;;17.59;100.00;101990.75;5071293;28;20119;-45
2023/08/22 02:45:37;;;;;;;0.00;0.00;;;;;;;17.59;100.00;101993.47;5070194;28;20039;-46
2023/08/22 02:48:04;;;;;;;0.00;0.00;;;;;;;17.59;100.00;101996.22;5070076;28;20028;-45
2023/08/22 02:50:29;;;;;;;0.00;0.00;;;;;;;17.57;100.00;101998.28;5071127;28;20033;-45
2023/08/22 02:52:55;;;;;;;0.00;0.00;;;;;;;17.57;100.00;102003.72;5052672;28;20078;-47
2023/08/22 02:55:20;;;;;;;0.00;0.00;;;;;;;17.57;100.00;101998.28;5071324;28;20486;-47
2023/08/22 02:57:46;;;;;;;0.00;0.00;;;;;;;17.54;100.00;101994.06;5071381;28;20030;-46
2023/08/22 03:00:12;;;;;;;0.00;0.00;;;;;;;17.51;100.00;101988.19;5070950;28;20067;-45
2023/08/22 03:02:38;;;;;;;0.00;0.00;;;;;;;17.50;100.00;101998.22;5071247;28;20028;-44
2023/08/22 03:05:07;;;;;;;0.00;0.00;;;;;;;17.47;100.00;101986.91;5071277;28;20506;-44
2023/08/22 03:07:32;;;;;;;0.00;0.00;;;;;;;17.44;100.00;101993.59;5071490;28;20035;-46
2023/08/22 03:09:57;;;;;;;0.00;0.00;;;;;;;17.47;100.00;101992.34;5071668;28;20028;-46
2023/08/22 03:12:23;;;;;;;0.00;0.00;;;;;;;17.47;100.00;101982.28;5071514;28;20032;-48
2023/08/22 03:14:48;;;;;;;0.00;0.00;;;;;;;17.49;100.00;101990.28;5071423;28;20467;-44
2023/08/22 03:17:13;;;;;;;0.00;0.00;;;;;;;17.51;100.00;101988.19;5070733;28;20475;-46
2023/08/22 03:19:39;;;;;;;0.00;0.00;;;;;;;17.52;100.00;101984.44;5070885;28;20114;-45
2023/08/22 03:22:04;;;;;;;0.00;0.00;;;;;;;17.54;100.00;101985.06;5074848;28;20425;-47
2023/08/22 03:24:30;;;;;;;0.00;0.00;;;;;;;17.58;100.00;101989.06;5072692;28;20028;-46
2023/08/22 03:26:56;;;;;;;0.00;0.00;;;;;;;17.60;100.00;101978.81;5069706;28;20042;-48
2023/08/22 03:29:21;;;;;;;0.00;0.00;;;;;;;17.63;100.00;101983.03;5051695;28;20397;-45
2023/08/22 03:31:46;;;;;;;0.00;0.00;;;;;;;17.65;100.00;101992.66;5076447;28;20086;-46
2023/08/22 03:34:12;;;;;;;0.00;0.00;;;;;;;17.63;100.00;101975.69;5082196;28;20032;-44
2023/08/22 03:36:37;;;;;;;0.00;0.00;;;;;;;17.65;100.00;101979.06;5057263;28;20032;-45
2023/08/22 03:39:02;;;;;;;0.00;0.00;;;;;;;17.64;100.00;101971.94;5072485;28;20052;-47
2023/08/22 03:41:28;;;;;;;0.00;0.00;;;;;;;17.62;100.00;101974.03;5056571;28;20339;-45
2023/08/22 03:43:53;;;;;;;0.00;0.00;;;;;;;17.63;100.00;101970.25;5084415;28;20481;-47
2023/08/22 03:46:18;;;;;;;0.00;0.00;;;;;;;17.62;100.00;101970.47;5073971;28;20364;-47
2023/08/22 03:48:44;;;;;;;0.00;0.00;;;;;;;17.63;100.00;101969.41;5074296;28;20041;-46
2023/08/22 03:51:09;;;;;;;0.00;0.00;;;;;;;17.64;100.00;101969.22;5081834;28;20029;-47
2023/08/22 03:53:36;;;;;;;0.00;0.00;;;;;;;17.65;100.00;101972.78;5074379;28;20028;-46
2023/08/22 03:56:02;;;;;;;0.00;0.00;;;;;;;17.63;100.00;101964.81;5075802;28;20078;-45
2023/08/22 03:58:27;;;;;;;0.00;0.00;;;;;;;17.63;100.00;101969.41;5074207;28;20029;-46
2023/08/22 04:01:03;;;;;;;0.00;0.00;;;;;;;17.58;100.00;101961.84;5073142;28;20036;-46
2023/08/22 04:03:31;;;;;;;0.00;0.00;;;;;;;17.57;100.00;101968.34;5073666;28;20064;-45
2023/08/22 04:05:58;;;;;;;0.00;0.00;;;;;;;17.57;100.00;101973.78;5088915;28;20367;-45
2023/08/22 04:08:24;;;;;;;0.00;0.00;;;;;;;17.56;100.00;101969.38;5077252;28;20439;-46
2023/08/22 04:10:50;;;;;;;0.00;0.00;;;;;;;17.59;100.00;101969.00;5073091;28;20036;-48
2023/08/22 04:13:16;;;;;;;0.00;0.00;;;;;;;17.61;100.00;101977.75;5059665;28;20471;-45
2023/08/22 04:15:41;;;;;;;0.00;0.00;;;;;;;17.63;100.00;101978.41;5088263;28;20031;-47
2023/08/22 04:18:06;;;;;;;0.00;0.00;;;;;;;17.61;100.00;101977.75;5091696;28;20031;-44
2023/08/22 04:20:32;;;;;;;0.00;0.00;;;;;;;17.62;100.00;101979.47;5080107;28;20020;-45
2023/08/22 04:22:57;;;;;;;0.00;0.00;;;;;;;17.61;100.00;101983.22;5073364;28;20031;-44
2023/08/22 04:25:22;;;;;;;0.00;0.00;;;;;;;17.61;100.00;101985.94;5075255;28;20077;-44
2023/08/22 04:27:48;;;;;;;0.00;0.00;;;;;;;17.62;100.00;101981.34;5085964;28;20119;-44
2023/08/22 04:30:13;;;;;;;0.00;0.00;;;;;;;17.63;100.00;101981.13;5075193;28;20501;-44
2023/08/22 04:32:39;;;;;;;0.00;0.00;;;;;;;17.66;100.00;101975.28;5075458;28;20113;-46
2023/08/22 04:35:04;;;;;;;0.00;0.00;;;;;;;17.70;100.00;101982.03;5073816;28;20324;-48
2023/08/22 04:37:30;;;;;;;0.00;0.00;;;;;;;17.68;100.00;101978.66;5073117;28;20036;-47
2023/08/22 04:39:55;;;;;;;0.00;0.00;;;;;;;17.67;100.00;101971.53;5072802;28;20025;-46
2023/08/22 04:42:21;;;;;;;0.00;0.00;;;;;;;17.64;100.00;101966.50;5073306;28;20025;-47
2023/08/22 04:44:46;;;;;;;0.00;0.00;;;;;;;17.63;100.00;101970.25;5072532;28;20426;-48
2023/08/22 04:47:11;;;;;;;0.00;0.00;;;;;;;17.62;100.00;101959.56;5073199;28;20062;-46
2023/08/22 04:49:37;;;;;;;0.00;0.00;;;;;;;17.58;100.00;101956.41;5073073;28;20023;-46
2023/08/22 04:52:02;;;;;;;0.00;0.00;;;;;;;17.53;100.00;101956.16;5072653;28;20108;-43
2023/08/22 04:54:27;;;;;;;0.00;0.00;;;;;;;17.53;100.00;101958.88;5072303;28;20032;-46
2023/08/22 04:56:53;;;;;;;0.00;0.00;;;;;;;17.54;100.00;101955.13;5073686;28;20158;-45
2023/08/22 04:59:18;;;;;;;0.00;0.00;;;;;;;17.50;100.00;101956.56;5072828;28;20056;-44
2023/08/22 05:01:44;;;;;;;0.00;0.00;;;;;;;17.51;100.00;101961.00;5072807;28;20047;-47
2023/08/22 05:04:09;;;;;;;0.00;0.00;;;;;;;17.55;100.00;101967.69;5074907;28;20407;-45
2023/08/22 05:06:34;;;;;;;0.00;0.00;;;;;;;17.57;100.00;101975.66;5071916;28;20111;-45
2023/08/22 05:09:00;;;;;;;0.00;0.00;;;;;;;17.57;100.00;101971.06;5072438;28;20429;-46
2023/08/22 05:11:25;;;;;;;0.00;0.00;;;;;;;17.61;100.00;101985.94;5074505;28;20055;-43
2023/08/22 05:13:50;;;;;;;0.00;0.00;;;;;;;17.68;100.00;101984.09;5079175;28;20380;-44
2023/08/22 05:16:16;;;;;;;0.00;0.00;;;;;;;17.77;100.00;101982.91;5072701;28;20090;-45
2023/08/22 05:18:41;;;;;;;0.10;0.00;;;;;;;17.87;100.00;101982.53;5072907;28;20163;-44
2023/08/22 05:21:07;;;;;;;0.00;0.00;;;;;;;17.95;100.00;101987.81;5069916;28;20061;-47
2023/08/22 05:23:32;;;;;;;0.00;0.00;;;;;;;18.04;100.00;101983.03;5072803;28;20524;-46
2023/08/22 05:25:57;;;;;;;0.00;0.00;;;;;;;18.14;100.00;101971.75;5071927;28;20311;-47
2023/08/22 05:28:23;;;;;;;0.00;0.00;;;;;;;18.14;100.00;101972.59;5072972;28;20036;-47
2023/08/22 05:30:48;;;;;;;0.00;0.00;;;;;;;18.24;100.00;101976.81;5086188;28;20059;-45
2023/08/22 05:33:13;;;;;;;0.00;0.00;;;;;;;18.29;100.00;101974.31;5092311;28;20024;-48
2023/08/22 05:35:39;;;;;;;0.00;0.00;;;;;;;18.29;100.00;101983.31;5082355;28;20081;-46
2023/08/22 05:38:04;;;;;;;0.00;0.00;;;;;;;18.33;100.00;101978.31;5075622;28;20548;-48
2023/08/22 05:40:30;;;;;;;0.00;0.00;;;;;;;18.39;100.00;101969.31;5052215;28;20060;-46
2023/08/22 05:42:55;;;;;;;0.00;0.00;;;;;;;18.56;100.00;101978.78;5072092;28;20027;-48
2023/08/22 05:45:21;;;;;;;0.00;0.00;;;;;;;18.86;100.00;101975.69;5074766;28;20032;-46
2023/08/22 05:47:46;;;;;;;0.00;0.00;;;;;;;19.41;100.00;101981.75;5071420;28;20115;-47
2023/08/22 05:50:12;;;;;;;0.00;0.00;;;;;;;19.77;100.00;101971.38;5071838;28;20024;-45
2023/08/22 05:52:37;;;;;;;0.00;0.00;;;;;;;20.09;100.00;101953.16;5071647;28;20032;-44
2023/08/22 05:55:03;;;;;;;0.00;0.00;;;;;;;20.44;100.00;101958.22;5072312;28;20115;-44
2023/08/22 05:57:29;;;;;;;0.00;0.00;;;;;;;20.92;100.00;101963.16;5069041;28;20107;-46
2023/08/22 05:59:54;;;;;;;0.00;0.00;;;;;;;21.10;100.00;101946.78;5061055;28;20450;-48
2023/08/22 06:02:20;;;;;;;0.00;0.00;;;;;;;21.26;100.00;101948.91;5072880;28;20052;-47
2023/08/22 06:04:46;;;;;;;0.00;0.00;;;;;;;20.89;100.00;101952.66;5073448;28;20037;-47
2023/08/22 06:07:11;;;;;;;0.00;0.00;;;;;;;20.57;100.00;101955.44;5074492;28;20052;-47
2023/08/22 06:09:37;;;;;;;0.00;0.00;;;;;;;20.36;100.00;101964.78;5088876;28;20111;-47
2023/08/22 06:12:02;;;;;;;0.00;0.00;;;;;;;20.04;100.00;101961.19;5083732;28;20040;-47
2023/08/22 06:14:28;;;;;;;0.00;0.00;;;;;;;19.81;100.00;101968.00;5073189;28;20040;-46
2023/08/22 06:16:53;;;;;;;0.00;0.00;;;;;;;19.61;100.00;101970.75;5071803;28;20549;-48
2023/08/22 06:19:19;;;;;;;0.00;0.00;;;;;;;19.51;100.00;101973.94;5087866;28;20474;-48
2023/08/22 06:21:45;;;;;;;0.00;0.00;;;;;;;19.53;100.00;101974.56;5092177;28;20081;-46
2023/08/22 06:24:10;;;;;;;0.00;0.00;;;;;;;19.86;100.00;101978.28;5092195;28;20055;-46
2023/08/22 06:26:36;;;;;;;0.00;0.00;;;;;;;20.59;100.00;101975.19;5080340;28;20431;-44
2023/08/22 06:29:01;;;;;;;0.00;0.00;;;;;;;21.31;100.00;101955.63;5076181;28;20028;-47
2023/08/22 06:31:27;;;;;;;0.00;0.00;;;;;;;22.20;100.00;101954.19;5053410;28;20107;-55
2023/08/22 06:33:52;;;;;;;0.00;0.00;;;;;;;23.07;100.00;101945.44;5070763;28;20044;-48
2023/08/22 06:36:17;;;;;;;0.00;0.00;;;;;;;23.22;100.00;101944.94;5074432;28;20038;-46
2023/08/22 06:38:43;;;;;;;0.00;0.00;;;;;;;23.94;100.00;101943.75;5078381;28;20024;-46
2023/08/22 06:41:08;;;;;;;0.00;0.00;;;;;;;24.78;100.00;101954.94;5066435;28;20064;-46
2023/08/22 06:43:34;;;;;;;0.00;0.00;;;;;;;24.44;100.00;101951.31;5070470;28;20020;-46
2023/08/22 06:45:59;;;;;;;0.00;0.00;;;;;;;25.03;100.00;101949.00;5074844;28;20453;-47
2023/08/22 06:48:26;;;;;;;0.00;0.00;;;;;;;24.88;100.00;101946.00;5073961;28;20428;-46
2023/08/22 06:50:52;;;;;;;0.00;0.00;;;;;;;24.73;100.00;101950.19;5070212;28;20024;-46
2023/08/22 06:53:18;;;;;;;0.00;0.00;;;;;;;24.65;100.00;101958.84;5070397;28;20025;-49
2023/08/22 06:55:47;;;;;;;0.00;0.00;;;;;;;24.78;100.00;101951.34;5070235;28;20024;-47
2023/08/22 06:58:12;;;;;;;0.00;0.00;;;;;;;24.74;100.00;101951.84;5071339;28;20060;-47
2023/08/22 07:00:38;;;;;;;0.00;0.00;;;;;;;24.49;100.00;101955.00;5070738;28;20084;-47
2023/08/22 07:03:03;;;;;;;0.00;0.00;;;;;;;24.83;100.00;101955.03;5070067;28;20078;-46
2023/08/22 07:05:29;;;;;;;0.00;0.00;;;;;;;25.41;100.00;101961.16;5052419;28;20479;-45
2023/08/22 07:07:54;;;;;;;0.00;0.00;;;;;;;25.78;100.00;101968.81;5070673;28;20043;-47
2023/08/22 07:10:20;;;;;;;0.00;0.00;;;;;;;25.98;100.00;101969.06;5070296;28;20029;-44
2023/08/22 07:12:45;;;;;;;0.00;0.00;;;;;;;25.56;100.00;101977.88;5069100;28;20043;-46
2023/08/22 07:15:10;;;;;;;0.00;0.00;;;;;;;25.06;100.00;101981.53;5071146;28;20028;-48
2023/08/22 07:17:36;;;;;;;0.00;0.00;;;;;;;24.26;100.00;101982.59;5072469;28;20024;-49
2023/08/22 07:20:02;;;;;;;0.00;0.00;;;;;;;23.65;100.00;101984.91;5073172;28;20036;-49
2023/08/22 07:22:27;;;;;;;0.00;0.00;;;;;;;23.28;100.00;101984.38;5075161;28;20146;-46
2023/08/22 07:24:53;;;;;;;0.00;0.00;;;;;;;23.22;100.00;101987.00;5079939;28;20032;-46
2023/08/22 07:27:18;;;;;;;0.00;0.00;;;;;;;22.94;100.00;101986.81;5080672;28;20056;-46
2023/08/22 07:29:44;;;;;;;0.00;0.00;;;;;;;22.79;100.00;101995.50;5077978;28;20397;-45
2023/08/22 07:32:09;;;;;;;0.00;0.00;;;;;;;22.67;100.00;101997.38;5076993;28;20463;-47
2023/08/22 07:34:35;;;;;;;0.00;0.00;;;;;;;22.64;100.00;101992.34;5074555;28;20036;-48
2023/08/22 07:37:00;;;;;;;0.00;0.00;;;;;;;22.86;100.00;101992.66;5075609;28;20029;-48
2023/08/22 07:39:27;;;;;;;0.00;0.00;;;;;;;23.51;100.00;101989.00;5057520;28;20020;-45
2023/08/22 07:41:53;;;;;;;0.00;0.00;;;;;;;23.80;100.00;101998.16;5073693;28;20043;-47
2023/08/22 07:44:19;;;;;;;0.00;0.00;;;;;;;23.78;100.00;101989.34;5055382;28;20123;-44
2023/08/22 07:46:44;;;;;;;0.00;0.00;;;;;;;23.69;100.00;101990.75;5076160;28;20040;-44
2023/08/22 07:49:10;;;;;;;0.00;0.00;;;;;;;23.72;100.00;101999.38;5073633;28;20028;-45
2023/08/22 07:51:36;;;;;;;0.00;0.00;;;;;;;23.48;100.00;101987.56;5073709;28;20528;-46
2023/08/22 07:54:02;;;;;;;0.00;0.00;;;;;;;23.48;100.00;101986.72;5080138;28;20398;-45
2023/08/22 07:56:28;;;;;;;0.00;0.00;;;;;;;23.47;100.00;101987.81;5075215;28;20442;-44
2023/08/22 07:58:53;;;;;;;0.00;0.00;;;;;;;23.71;100.00;101994.09;5073202;28;20056;-46
2023/08/22 08:01:18;;;;;;;0.00;0.00;;;;;;;23.97;100.00;101984.50;5070991;28;20071;-48
2023/08/22 08:03:44;;;;;;;0.00;0.00;;;;;;;24.51;100.00;101987.75;5072446;28;20607;-45
2023/08/22 08:06:09;;;;;;;0.00;0.00;;;;;;;24.63;100.00;101985.78;5073396;28;20533;-44
2023/08/22 08:08:34;;;;;;;0.00;0.00;;;;;;;24.50;100.00;101984.19;5080237;28;20486;-46
2023/08/22 08:11:00;;;;;;;0.00;0.00;;;;;;;24.37;100.00;101978.13;5072997;28;20116;-44
2023/08/22 08:13:25;;;;;;;0.00;0.00;;;;;;;23.82;100.00;101991.34;5074471;28;20108;-46
2023/08/22 08:15:51;;;;;;;0.00;0.00;;;;;;;23.55;100.00;101988.28;5074232;28;20025;-47
2023/08/22 08:18:16;;;;;;;0.00;0.00;;;;;;;23.20;100.00;101991.88;5081213;28;20414;-45
2023/08/22 08:20:42;;;;;;;0.00;0.00;;;;;;;23.31;100.00;101992.94;5079266;28;20348;-45
2023/08/22 08:23:08;;;;;;;0.00;0.00;;;;;;;23.16;100.00;101998.06;5065297;28;20063;-46
2023/08/22 08:25:33;;;;;;;0.00;0.00;;;;;;;23.13;100.00;102001.31;5072208;28;20032;-45
2023/08/22 08:27:58;;;;;;;0.00;0.00;;;;;;;23.24;100.00;102003.22;5074845;28;20060;-45
2023/08/22 08:30:24;;;;;;;0.00;0.00;;;;;;;23.42;100.00;101994.03;5076111;28;20020;-46
2023/08/22 08:32:49;;;;;;;0.00;0.00;;;;;;;23.40;100.00;101980.50;5081120;28;20050;-47
2023/08/22 08:35:15;;;;;;;0.00;0.00;;;;;;;23.37;100.00;101989.25;5068514;28;20492;-43
2023/08/22 08:37:40;;;;;;;0.00;0.00;;;;;;;23.28;100.00;101990.69;5074934;28;20115;-48
2023/08/22 08:40:09;;;;;;;0.00;0.00;;;;;;;23.35;100.00;101996.88;5073198;28;20054;-45
2023/08/22 08:42:37;;;;;;;0.00;0.00;;;;;;;23.37;100.00;101985.66;5072164;28;20035;-46
2023/08/22 08:45:06;;;;;;;0.00;0.00;;;;;;;23.30;100.00;101991.28;5072336;28;20021;-45
2023/08/22 08:47:33;;;;;;;0.00;0.00;;;;;;;23.21;100.00;101992.72;5054747;28;20034;-44
2023/08/22 08:50:00;;;;;;;0.00;0.00;;;;;;;23.13;100.00;102001.31;5072404;28;20028;-46
2023/08/22 08:52:25;;;;;;;;;;;;;;;23.06;100.00;102008.81;5072650;28;20039;-46
2023/08/22 08:54:51;;;;;;;0.00;0.00;;;;;;;22.94;100.00;102008.78;5076097;28;19913;-45
2023/08/22 08:57:16;;;;;;;0.00;0.00;;;;;;;23.08;100.00;102006.66;5075787;28;20440;-46
2023/08/22 08:59:42;;;;;;;0.00;0.00;;;;;;;23.05;100.00;102009.91;5077211;28;20028;-42
2023/08/22 09:02:11;;;;;;;0.00;0.00;;;;;;;22.77;100.00;102011.34;5072235;28;20055;-45
2023/08/22 09:04:37;;;;;;;0.00;0.00;;;;;;;22.82;100.00;102011.50;5073162;28;20488;-44
2023/08/22 09:07:03;;;;;;;0.00;0.00;;;;;;;22.91;100.00;102004.59;5078103;28;20028;-46
2023/08/22 09:09:33;;;;;;;0.00;0.00;;;;;;;23.02;100.00;102010.38;5059113;28;20024;-49
2023/08/22 09:12:04;;;;;;;0.00;0.00;;;;;;;22.95;100.00;102000.28;5074766;28;20032;-43
2023/08/22 09:14:29;;;;;;;0.00;0.00;;;;;;;22.97;100.00;102000.94;5063571;28;20119;-44
2023/08/22 09:16:59;;;;;;;0.00;0.00;;;;;;;23.02;100.00;102000.22;5053068;28;20047;-48
2023/08/22 09:19:25;;;;;;;0.00;0.00;;;;;;;23.06;100.00;102006.06;5068104;28;20047;-46
2023/08/22 09:22:02;;;;;;;0.00;0.00;;;;;;;23.04;100.00;102005.47;5037585;28;20112;-46
2023/08/22 09:24:28;;;;;;;0.00;0.00;;;;;;;22.92;100.00;102002.69;5079457;28;20024;-46
2023/08/22 09:26:54;;;;;;;0.00;0.00;;;;;;;22.94;100.00;102015.09;5072885;28;20541;-46
2023/08/22 09:29:27;;;;;;;0.00;0.00;;;;;;;22.99;100.00;102019.91;5072305;28;20430;-47
2023/08/22 09:31:57;;;;;;;0.00;0.00;;;;;;;23.06;100.00;102022.53;5073713;28;20032;-45
2023/08/22 09:34:22;;;;;;;0.00;0.00;;;;;;;23.03;100.00;102018.34;5073051;28;20036;-45
2023/08/22 09:36:48;;;;;;;0.00;0.00;;;;;;;23.20;100.00;102030.31;5075256;28;20050;-44
2023/08/22 09:39:18;;;;;;;0.05;0.00;;;;;;;23.19;100.00;102025.06;5074266;28;20128;-44
2023/08/22 09:41:43;;;;;;;0.00;0.00;;;;;;;23.29;100.00;102028.06;5072477;28;20030;-44
2023/08/22 09:44:10;;;;;;;0.00;0.00;;;;;;;23.39;100.00;102027.47;5055351;28;20387;-45
2023/08/22 09:46:38;;;;;;;0.00;0.00;;;;;;;23.44;100.00;102014.69;5073079;28;20028;-43
2023/08/22 09:49:04;;;;;;;0.00;0.00;;;;;;;23.49;100.00;102024.97;5073299;28;20043;-47
2023/08/22 09:51:30;;;;;;;0.00;0.00;;;;;;;23.36;100.00;102026.03;5055368;28;20028;-44
2023/08/22 09:53:59;;;;;;;0.00;0.00;;;;;;;23.34;100.00;102024.59;5057163;28;20455;-46
2023/08/22 09:56:25;;;;;;;0.00;0.00;;;;;;;23.19;100.00;102027.81;5067081;28;20370;-47
2023/08/22 09:58:52;;;;;;;0.00;0.00;;;;;;;23.04;100.00;102019.19;5078197;28;20089;-45
2023/08/22 10:01:19;;;;;;;0.00;0.00;;;;;;;22.85;100.00;102022.00;5071487;28;20097;-47
2023/08/22 10:03:46;;;;;;;0.00;0.00;;;;;;;22.83;100.00;102018.66;5069913;28;20060;-45
2023/08/22 10:06:12;;;;;;;0.00;0.00;;;;;;;23.24;100.00;102022.44;5072973;28;20028;-45
2023/08/22 10:08:39;;;;;;;0.00;0.00;;;;;;;23.79;100.00;102022.09;5089355;28;20398;-44
2023/08/22 10:11:05;;;;;;;0.00;0.00;;;;;;;24.14;100.00;102023.06;5090081;28;20260;-44
2023/08/22 10:13:30;;;;;;;0.00;0.00;;;;;;;24.42;100.00;102017.56;5069600;28;20067;-45
2023/08/22 10:15:56;;;;;;;0.00;0.00;;;;;;;24.88;100.00;102021.22;5074816;28;20028;-49
2023/08/22 10:18:23;;;;;;;0.00;0.00;;;;;;;24.93;100.00;102023.19;5074110;28;20291;-45
2023/08/22 10:20:48;;;;;;;0.00;0.00;;;;;;;24.75;100.00;102019.59;5083227;28;20044;-44
2023/08/22 10:23:15;;;;;;;0.00;0.00;;;;;;;24.59;100.00;102020.38;5071204;28;20031;-47
2023/08/22 10:25:49;;;;;;;0.00;0.00;;;;;;;24.41;100.00;102021.44;5070972;28;20505;-47
2023/08/22 10:28:16;;;;;;;0.00;0.00;;;;;;;23.61;100.00;102020.28;5070826;28;20354;-48
2023/08/22 10:31:05;;;;;;;0.68;0.00;;;;;;;23.12;100.00;102027.09;5073426;28;20535;-44
2023/08/22 10:33:31;;;;;;;0.00;0.00;;;;;;;22.88;100.00;102032.53;5075735;28;20119;-45
2023/08/22 10:36:16;;;;;;;0.00;0.00;;;;;;;22.81;100.00;102020.81;5072899;28;20028;-45
2023/08/22 10:38:52;;;;;;;0.00;0.00;;;;;;;22.89;100.00;102017.72;5080903;28;20040;-46
2023/08/22 10:41:42;;;;;;;0.00;0.00;;;;;;;22.88;100.00;102027.03;5070868;28;20395;-47
2023/08/22 10:44:16;;;;;;;0.00;0.00;;;;;;;23.08;100.00;102032.22;5077259;28;20523;-45
2023/08/22 10:47:03;;;;;;;0.00;0.00;;;;;;;23.29;100.00;102033.56;5074912;28;20544;-45
2023/08/22 10:49:33;;;;;;;0.00;0.00;;;;;;;23.26;100.00;102028.53;5068242;28;20379;-46
2023/08/22 10:52:10;;;;;;;0.00;0.00;;;;;;;23.40;100.00;102029.97;5070227;28;20032;-45
2023/08/22 10:55:01;;;;;;;0.00;0.00;;;;;;;23.55;100.00;102024.00;5070300;28;20107;-46
2023/08/22 10:57:31;;;;;;;0.00;0.00;;;;;;;23.70;100.00;102018.00;5051450;28;20021;-47
2023/08/22 10:59:59;;;;;;;0.00;0.00;;;;;;;23.59;100.00;102008.72;5069122;28;20028;-48
2023/08/22 11:02:35;;;;;;;0.00;0.00;;;;;;;23.60;100.00;102026.84;5069954;28;20037;-45
2023/08/22 11:05:08;;;;;;;0.00;0.00;;;;;;;23.22;100.00;102033.69;5068022;28;20730;-44
2023/08/22 11:07:34;;;;;;;0.00;0.00;;;;;;;23.46;100.00;102028.19;5069768;28;20386;-45
2023/08/22 11:09:59;;;;;;;0.00;0.00;;;;;;;23.66;100.00;102027.81;5069511;28;20029;-43
2023/08/22 11:12:27;;;;;;;0.00;0.00;;;;;;;23.47;100.00;102031.78;5068737;28;20025;-44
2023/08/22 11:14:52;;;;;;;;;;;;;;;23.69;100.00;102027.31;5051932;28;20470;-46